Time;durP1;ratioP1;P1;durP2;ratioP2;P2;SDS_P1;SDS_P2;PMS_P1;PMS_P2;Temp;Humidity;BMP_temperature;BMP_pressure;BME280_temperature;BME280_humidity;BME280_pressure;Samples;Min_cycle;Max_cycle;Signal;HPM_P1;HPM_P2
2021/06/09 00:00:18;;;;;;;0.00;0.00;;;;;;;;;;5017407;28;20474;-66
2021/06/09 00:02:43;;;;;;;0.00;0.00;;;;;;;;;;5024603;28;20029;-66
2021/06/09 00:05:09;;;;;;;0.00;0.00;;;;;;;;;;5021103;28;20064;-65
2021/06/09 00:07:34;;;;;;;0.00;0.00;;;;;;;;;;5022031;28;20779;-66
2021/06/09 00:09:59;;;;;;;0.00;0.00;;;;;;;;;;5037894;28;20014;-65
2021/06/09 00:12:24;;;;;;;0.00;0.00;;;;;;;;;;5020126;28;20029;-66
2021/06/09 00:14:50;;;;;;;0.00;0.00;;;;;;;;;;5022491;28;20608;-66
2021/06/09 00:17:15;;;;;;;0.00;0.00;;;;;;;;;;5033394;28;20279;-65
2021/06/09 00:19:40;;;;;;;0.00;0.00;;;;;;;;;;5042889;28;20214;-65
2021/06/09 00:22:07;;;;;;;0.00;0.00;;;;;;;;;;5015120;28;20284;-66
2021/06/09 00:24:32;;;;;;;0.00;0.00;;;;;;;;;;5038425;28;20148;-65
2021/06/09 00:26:57;;;;;;;0.00;0.00;;;;;;;;;;5024693;28;20108;-66
2021/06/09 00:29:22;;;;;;;0.00;0.00;;;;;;;;;;5035220;28;20050;-66
2021/06/09 00:31:48;;;;;;;0.00;0.00;;;;;;;;;;5040895;28;20284;-65
2021/06/09 00:34:13;;;;;;;0.00;0.00;;;;;;;;;;5018968;28;20355;-65
2021/06/09 00:36:38;;;;;;;0.00;0.00;;;;;;;;;;5022584;28;20496;-65
2021/06/09 00:39:05;;;;;;;0.00;0.00;;;;;;;;;;5031520;28;20410;-66
2021/06/09 00:41:30;;;;;;;0.00;0.00;;;;;;;;;;5039014;28;20461;-67
2021/06/09 00:43:55;;;;;;;0.00;0.00;;;;;;;;;;5030860;28;20054;-66
2021/06/09 00:46:20;;;;;;;0.00;0.00;;;;;;;;;;5045823;28;20439;-66
2021/06/09 00:48:45;;;;;;;0.10;0.10;;;;;;;;;;5038690;28;20470;-66
2021/06/09 00:51:16;;;;;;;0.00;0.00;;;;;;;;;;5026919;28;20024;-66
2021/06/09 00:53:47;;;;;;;0.00;0.00;;;;;;;;;;5043479;28;20625;-65
2021/06/09 00:56:13;;;;;;;0.00;0.00;;;;;;;;;;5021771;28;20382;-65
2021/06/09 00:58:38;;;;;;;0.00;0.00;;;;;;;;;;5036199;28;20030;-66
2021/06/09 01:01:04;;;;;;;0.00;0.00;;;;;;;;;;5024958;28;20028;-65
2021/06/09 01:03:29;;;;;;;0.00;0.00;;;;;;;;;;5046374;28;20091;-65
2021/06/09 01:05:54;;;;;;;0.00;0.00;;;;;;;;;;5036935;28;20033;-66
2021/06/09 01:08:20;;;;;;;0.00;0.00;;;;;;;;;;5019260;28;20028;-66
2021/06/09 01:10:47;;;;;;;0.00;0.00;;;;;;;;;;5033128;28;20272;-66
2021/06/09 01:13:13;;;;;;;0.00;0.00;;;;;;;;;;5038011;28;20448;-66
2021/06/09 01:15:38;;;;;;;0.00;0.00;;;;;;;;;;5028581;28;20033;-66
2021/06/09 01:18:04;;;;;;;0.00;0.00;;;;;;;;;;5033078;28;20022;-66
2021/06/09 01:20:29;;;;;;;0.00;0.00;;;;;;;;;;5026081;28;20124;-66
2021/06/09 01:22:54;;;;;;;0.00;0.00;;;;;;;;;;5043412;28;20030;-65
2021/06/09 01:25:20;;;;;;;0.00;0.00;;;;;;;;;;5021198;28;20119;-65
2021/06/09 01:27:46;;;;;;;0.00;0.00;;;;;;;;;;5018652;28;20060;-66
2021/06/09 01:30:11;;;;;;;0.00;0.00;;;;;;;;;;5028242;28;20045;-65
2021/06/09 01:32:36;;;;;;;0.00;0.00;;;;;;;;;;5021909;28;20022;-65
2021/06/09 01:35:02;;;;;;;0.00;0.00;;;;;;;;;;5041958;28;20032;-66
2021/06/09 01:37:27;;;;;;;0.00;0.00;;;;;;;;;;5039334;28;20041;-66
2021/06/09 01:39:55;;;;;;;0.00;0.00;;;;;;;;;;5020950;28;20068;-66
2021/06/09 01:42:23;;;;;;;0.00;0.00;;;;;;;;;;5018356;28;20084;-66
2021/06/09 01:44:48;;;;;;;0.00;0.00;;;;;;;;;;5027712;28;20096;-66
2021/06/09 01:47:13;;;;;;;0.00;0.00;;;;;;;;;;5018334;28;20029;-66
2021/06/09 01:49:41;;;;;;;0.00;0.00;;;;;;;;;;5038744;28;20271;-66
2021/06/09 01:52:08;;;;;;;0.00;0.00;;;;;;;;;;5015950;28;20886;-66
2021/06/09 01:54:33;;;;;;;0.00;0.00;;;;;;;;;;5036357;28;20029;-65
2021/06/09 01:56:59;;;;;;;0.00;0.00;;;;;;;;;;5015548;28;20022;-66
2021/06/09 01:59:24;;;;;;;0.00;0.00;;;;;;;;;;5030776;28;20263;-66
2021/06/09 02:01:49;;;;;;;0.00;0.00;;;;;;;;;;5018961;28;20033;-66
2021/06/09 02:04:15;;;;;;;0.00;0.00;;;;;;;;;;5040570;28;20924;-66
2021/06/09 02:06:41;;;;;;;0.00;0.00;;;;;;;;;;5018991;28;20091;-66
2021/06/09 02:09:06;;;;;;;0.00;0.00;;;;;;;;;;5020935;28;20032;-66
2021/06/09 02:11:31;;;;;;;0.00;0.00;;;;;;;;;;5013004;28;20090;-66
2021/06/09 02:13:57;;;;;;;0.00;0.00;;;;;;;;;;5037318;28;20034;-66
2021/06/09 02:16:22;;;;;;;0.00;0.00;;;;;;;;;;5042016;28;20044;-65
2021/06/09 02:18:47;;;;;;;0.00;0.00;;;;;;;;;;5018466;28;20033;-65
2021/06/09 02:21:12;;;;;;;0.00;0.00;;;;;;;;;;5017981;28;20279;-65
2021/06/09 02:23:38;;;;;;;0.00;0.00;;;;;;;;;;5026281;28;20721;-65
2021/06/09 02:26:03;;;;;;;0.00;0.00;;;;;;;;;;5017801;28;20750;-66
2021/06/09 02:28:30;;;;;;;0.00;0.00;;;;;;;;;;5024897;28;20031;-66
2021/06/09 02:30:55;;;;;;;0.00;0.00;;;;;;;;;;5014301;28;20021;-66
2021/06/09 02:33:21;;;;;;;0.00;0.00;;;;;;;;;;5035045;28;20029;-66
2021/06/09 02:35:47;;;;;;;0.00;0.00;;;;;;;;;;5045817;28;20525;-65
2021/06/09 02:38:12;;;;;;;0.00;0.00;;;;;;;;;;5042713;28;20025;-66
2021/06/09 02:40:38;;;;;;;0.00;0.00;;;;;;;;;;5020839;28;20029;-65
2021/06/09 02:43:03;;;;;;;0.00;0.00;;;;;;;;;;5026600;28;20043;-65
2021/06/09 02:45:28;;;;;;;0.00;0.00;;;;;;;;;;5016424;28;20599;-66
2021/06/09 02:47:54;;;;;;;0.00;0.00;;;;;;;;;;5040665;28;20767;-65
2021/06/09 02:50:20;;;;;;;0.00;0.00;;;;;;;;;;5034322;28;20018;-66
2021/06/09 02:52:48;;;;;;;0.00;0.00;;;;;;;;;;4997989;28;20045;-66
2021/06/09 02:55:22;;;;;;;0.00;0.00;;;;;;;;;;5016296;28;20481;-66
2021/06/09 02:58:03;;;;;;;0.00;0.00;;;;;;;;;;5020704;28;20388;-68
2021/06/09 03:00:48;;;;;;;0.00;0.00;;;;;;;;;;5032773;28;20021;-65
2021/06/09 03:03:13;;;;;;;0.00;0.00;;;;;;;;;;4973438;28;20619;-65
2021/06/09 03:05:48;;;;;;;0.00;0.00;;;;;;;;;;5018181;28;20057;-65
2021/06/09 03:08:23;;;;;;;0.00;0.00;;;;;;;;;;5015952;28;20851;-66
2021/06/09 03:10:51;;;;;;;0.10;0.10;;;;;;;;;;5033628;28;20044;-66
2021/06/09 03:13:24;;;;;;;0.05;0.05;;;;;;;;;;5039490;28;20473;-65
2021/06/09 03:16:00;;;;;;;0.00;0.00;;;;;;;;;;5018030;28;20847;-65
2021/06/09 03:18:34;;;;;;;0.00;0.00;;;;;;;;;;5034057;28;20095;-65
2021/06/09 03:21:06;;;;;;;0.00;0.00;;;;;;;;;;5022182;28;21550;-65
2021/06/09 03:23:31;;;;;;;0.00;0.00;;;;;;;;;;5020966;28;20065;-65
2021/06/09 03:25:58;;;;;;;0.00;0.00;;;;;;;;;;5027688;28;20103;-65
2021/06/09 03:28:26;;;;;;;0.00;0.00;;;;;;;;;;5035781;28;20322;-65
2021/06/09 03:30:53;;;;;;;0.00;0.00;;;;;;;;;;5020455;28;20148;-65
2021/06/09 03:33:18;;;;;;;0.00;0.00;;;;;;;;;;5027550;28;20024;-65
2021/06/09 03:35:52;;;;;;;0.00;0.00;;;;;;;;;;5041950;28;20017;-65
2021/06/09 03:38:24;;;;;;;0.00;0.00;;;;;;;;;;5015493;28;20359;-65
2021/06/09 03:40:52;;;;;;;0.00;0.00;;;;;;;;;;5035246;28;20033;-65
2021/06/09 03:43:18;;;;;;;0.00;0.00;;;;;;;;;;5036183;28;20026;-65
2021/06/09 03:45:45;;;;;;;0.00;0.00;;;;;;;;;;5030659;28;20049;-65
2021/06/09 03:48:10;;;;;;;0.00;0.00;;;;;;;;;;5011818;28;20482;-65
2021/06/09 03:50:35;;;;;;;0.00;0.00;;;;;;;;;;5043664;28;20021;-65
2021/06/09 03:53:03;;;;;;;0.00;0.00;;;;;;;;;;5025044;28;20045;-65
2021/06/09 03:55:29;;;;;;;0.00;0.00;;;;;;;;;;5031515;28;21095;-65
2021/06/09 03:57:54;;;;;;;0.00;0.00;;;;;;;;;;5040402;28;20116;-65
2021/06/09 04:00:23;;;;;;;0.00;0.00;;;;;;;;;;5037589;28;20478;-65
2021/06/09 04:02:48;;;;;;;0.00;0.00;;;;;;;;;;5033644;28;20566;-65
2021/06/09 04:05:13;;;;;;;0.00;0.00;;;;;;;;;;5035502;28;20021;-65
2021/06/09 04:07:39;;;;;;;0.00;0.00;;;;;;;;;;5011853;28;20292;-65
2021/06/09 04:10:04;;;;;;;0.00;0.00;;;;;;;;;;5014462;28;20111;-65
2021/06/09 04:12:29;;;;;;;0.00;0.00;;;;;;;;;;5010333;28;20621;-65
2021/06/09 04:14:54;;;;;;;0.00;0.00;;;;;;;;;;5038138;28;20099;-65
2021/06/09 04:17:22;;;;;;;0.00;0.00;;;;;;;;;;5036248;28;20809;-65
2021/06/09 04:19:47;;;;;;;0.00;0.00;;;;;;;;;;5023319;28;20030;-65
2021/06/09 04:22:12;;;;;;;0.00;0.00;;;;;;;;;;5026909;28;20062;-65
2021/06/09 04:24:39;;;;;;;0.00;0.00;;;;;;;;;;5015891;28;20397;-65
2021/06/09 04:27:05;;;;;;;0.00;0.00;;;;;;;;;;5015565;28;20037;-65
2021/06/09 04:29:30;;;;;;;0.00;0.00;;;;;;;;;;5021111;28;20032;-65
2021/06/09 04:31:55;;;;;;;0.00;0.00;;;;;;;;;;5028576;28;20025;-65
2021/06/09 04:34:21;;;;;;;0.00;0.00;;;;;;;;;;5011678;28;20022;-66
2021/06/09 04:36:49;;;;;;;0.00;0.00;;;;;;;;;;5010842;28;20268;-66
2021/06/09 04:39:15;;;;;;;0.00;0.00;;;;;;;;;;4997818;28;20277;-66
2021/06/09 04:41:40;;;;;;;0.00;0.00;;;;;;;;;;5022355;28;20110;-66
2021/06/09 04:44:05;;;;;;;0.00;0.00;;;;;;;;;;5031465;28;20628;-66
2021/06/09 04:46:31;;;;;;;0.00;0.00;;;;;;;;;;5019477;28;20021;-66
2021/06/09 04:48:57;;;;;;;0.00;0.00;;;;;;;;;;5034130;28;20295;-66
2021/06/09 04:51:26;;;;;;;0.00;0.00;;;;;;;;;;5021916;28;20027;-66
2021/06/09 04:53:51;;;;;;;0.00;0.00;;;;;;;;;;5022328;28;20022;-67
2021/06/09 04:56:16;;;;;;;0.00;0.00;;;;;;;;;;5013906;28;20029;-66
2021/06/09 04:58:42;;;;;;;0.00;0.00;;;;;;;;;;5020762;28;20277;-66
2021/06/09 05:01:07;;;;;;;0.00;0.00;;;;;;;;;;5016061;28;20260;-66
2021/06/09 05:03:33;;;;;;;0.00;0.00;;;;;;;;;;5002273;28;20382;-65
2021/06/09 05:05:58;;;;;;;0.00;0.00;;;;;;;;;;5008237;28;20377;-65
2021/06/09 05:08:23;;;;;;;0.00;0.00;;;;;;;;;;5008908;28;20030;-66
2021/06/09 05:10:50;;;;;;;0.00;0.00;;;;;;;;;;5002499;28;20316;-65
2021/06/09 05:13:16;;;;;;;0.00;0.00;;;;;;;;;;5019957;28;20268;-65
2021/06/09 05:15:45;;;;;;;0.00;0.00;;;;;;;;;;5036757;28;20344;-65
2021/06/09 05:18:17;;;;;;;0.00;0.00;;;;;;;;;;5035112;28;20033;-65
2021/06/09 05:20:42;;;;;;;0.00;0.00;;;;;;;;;;5016336;28;20038;-65
2021/06/09 05:23:26;;;;;;;0.00;0.00;;;;;;;;;;5039035;28;20351;-67
2021/06/09 05:25:51;;;;;;;0.00;0.00;;;;;;;;;;5020160;28;20692;-67
2021/06/09 05:28:17;;;;;;;0.00;0.00;;;;;;;;;;5017549;28;20032;-65
2021/06/09 05:30:42;;;;;;;0.00;0.00;;;;;;;;;;5035882;28;20026;-65
2021/06/09 05:33:07;;;;;;;0.00;0.00;;;;;;;;;;5015885;28;20590;-66
2021/06/09 05:35:33;;;;;;;0.00;0.00;;;;;;;;;;5019161;28;20018;-66
2021/06/09 05:37:58;;;;;;;0.00;0.00;;;;;;;;;;5019308;28;20383;-66
2021/06/09 05:40:23;;;;;;;0.00;0.00;;;;;;;;;;5023685;28;20024;-65
2021/06/09 05:42:48;;;;;;;0.00;0.00;;;;;;;;;;5045640;28;20060;-65
2021/06/09 05:45:14;;;;;;;0.00;0.00;;;;;;;;;;5025250;28;20052;-65
2021/06/09 05:47:42;;;;;;;0.00;0.00;;;;;;;;;;5022964;28;20036;-65
2021/06/09 05:50:08;;;;;;;0.00;0.00;;;;;;;;;;5016202;28;20088;-65
2021/06/09 05:52:33;;;;;;;0.00;0.00;;;;;;;;;;5019936;28;20017;-65
2021/06/09 05:54:59;;;;;;;0.00;0.00;;;;;;;;;;5022665;28;20018;-65
2021/06/09 05:57:24;;;;;;;0.00;0.00;;;;;;;;;;5019962;28;20308;-65
2021/06/09 05:59:50;;;;;;;0.00;0.00;;;;;;;;;;5015611;28;20064;-65
2021/06/09 06:02:15;;;;;;;0.00;0.00;;;;;;;;;;5022194;28;20356;-65
2021/06/09 06:04:40;;;;;;;0.00;0.00;;;;;;;;;;5017663;28;20644;-65
2021/06/09 06:07:06;;;;;;;0.00;0.00;;;;;;;;;;5041657;28;20283;-66
2021/06/09 06:09:31;;;;;;;0.00;0.00;;;;;;;;;;5019740;28;20688;-66
2021/06/09 06:11:56;;;;;;;0.00;0.00;;;;;;;;;;5029629;28;20018;-66
2021/06/09 06:14:24;;;;;;;0.00;0.00;;;;;;;;;;5021462;28;20096;-66
2021/06/09 06:16:54;;;;;;;0.00;0.00;;;;;;;;;;5030498;28;20622;-69
2021/06/09 06:19:19;;;;;;;0.00;0.00;;;;;;;;;;5025535;28;20029;-67
2021/06/09 06:21:46;;;;;;;0.00;0.00;;;;;;;;;;5032978;28;20474;-66
2021/06/09 06:24:11;;;;;;;0.00;0.00;;;;;;;;;;5041713;28;20025;-66
2021/06/09 06:26:36;;;;;;;0.00;0.00;;;;;;;;;;5034733;28;20441;-66
2021/06/09 06:29:02;;;;;;;0.00;0.00;;;;;;;;;;5032141;28;20025;-65
2021/06/09 06:31:27;;;;;;;0.00;0.00;;;;;;;;;;5041795;28;20113;-66
2021/06/09 06:33:53;;;;;;;0.00;0.00;;;;;;;;;;5022042;28;20112;-65
2021/06/09 06:36:19;;;;;;;0.00;0.00;;;;;;;;;;5005046;28;20026;-65
2021/06/09 06:38:45;;;;;;;0.00;0.00;;;;;;;;;;5020945;28;20139;-66
2021/06/09 06:41:10;;;;;;;0.00;0.00;;;;;;;;;;5024427;28;20465;-67
2021/06/09 06:43:35;;;;;;;0.00;0.00;;;;;;;;;;5028628;28;20057;-66
2021/06/09 06:46:02;;;;;;;0.00;0.00;;;;;;;;;;5037063;28;20635;-66
2021/06/09 06:48:27;;;;;;;0.00;0.00;;;;;;;;;;5020262;28;20021;-66
2021/06/09 06:50:52;;;;;;;0.00;0.00;;;;;;;;;;5040587;28;20436;-66
2021/06/09 06:53:17;;;;;;;0.00;0.00;;;;;;;;;;5019194;28;20272;-67
2021/06/09 06:55:42;;;;;;;0.00;0.00;;;;;;;;;;5018333;28;20291;-66
2021/06/09 06:58:08;;;;;;;0.00;0.00;;;;;;;;;;5022114;28;20036;-66
2021/06/09 07:00:34;;;;;;;0.00;0.00;;;;;;;;;;5006240;28;20034;-66
2021/06/09 07:02:59;;;;;;;0.00;0.00;;;;;;;;;;5002080;28;20033;-66
2021/06/09 07:05:25;;;;;;;0.00;0.00;;;;;;;;;;5034289;28;20061;-66
2021/06/09 07:07:50;;;;;;;0.00;0.00;;;;;;;;;;5018601;28;20112;-66
2021/06/09 07:10:16;;;;;;;0.00;0.00;;;;;;;;;;5016209;28;20026;-66
2021/06/09 07:12:42;;;;;;;0.00;0.00;;;;;;;;;;5038082;28;20264;-66
2021/06/09 07:15:11;;;;;;;0.00;0.00;;;;;;;;;;5040449;28;20133;-66
2021/06/09 07:17:49;;;;;;;0.00;0.00;;;;;;;;;;5016362;28;20118;-66
2021/06/09 07:20:15;;;;;;;0.00;0.00;;;;;;;;;;5019142;28;20025;-67
2021/06/09 07:22:40;;;;;;;0.00;0.00;;;;;;;;;;5021602;28;20439;-66
2021/06/09 07:25:08;;;;;;;0.00;0.00;;;;;;;;;;5010794;28;20029;-66
2021/06/09 07:27:34;;;;;;;0.00;0.00;;;;;;;;;;5018883;28;20021;-65
2021/06/09 07:29:59;;;;;;;0.00;0.00;;;;;;;;;;5018214;28;20678;-66
2021/06/09 07:32:24;;;;;;;0.00;0.00;;;;;;;;;;5000005;28;20025;-65
2021/06/09 07:34:50;;;;;;;0.00;0.00;;;;;;;;;;5013245;28;20729;-66
2021/06/09 07:37:16;;;;;;;0.00;0.00;;;;;;;;;;5018244;28;20025;-65
2021/06/09 07:39:43;;;;;;;0.00;0.00;;;;;;;;;;5038079;28;20032;-66
2021/06/09 07:42:09;;;;;;;0.00;0.00;;;;;;;;;;5028753;28;20018;-66
2021/06/09 07:44:55;;;;;;;0.00;0.00;;;;;;;;;;5029896;28;20060;-66
2021/06/09 07:47:20;;;;;;;;;;;;;;;;;;5004086;28;20033;-66
2021/06/09 07:49:46;;;;;;;0.00;0.00;;;;;;;;;;5015757;28;19971;-67
2021/06/09 07:52:11;;;;;;;0.00;0.00;;;;;;;;;;5018703;28;20037;-67
2021/06/09 07:54:37;;;;;;;0.00;0.00;;;;;;;;;;5007512;28;20418;-66
2021/06/09 07:57:04;;;;;;;0.00;0.00;;;;;;;;;;5017429;28;20450;-67
2021/06/09 07:59:29;;;;;;;0.00;0.00;;;;;;;;;;5017093;28;20069;-67
2021/06/09 08:01:54;;;;;;;0.00;0.00;;;;;;;;;;5017937;28;20057;-66
2021/06/09 08:04:20;;;;;;;0.00;0.00;;;;;;;;;;5003068;28;20056;-66
2021/06/09 08:06:45;;;;;;;0.00;0.00;;;;;;;;;;4999514;28;20021;-66
2021/06/09 08:09:14;;;;;;;0.00;0.00;;;;;;;;;;5004639;28;20025;-66
2021/06/09 08:11:40;;;;;;;0.00;0.00;;;;;;;;;;5034890;28;20031;-66
2021/06/09 08:14:06;;;;;;;0.00;0.00;;;;;;;;;;5020656;28;20017;-66
2021/06/09 08:16:31;;;;;;;0.00;0.00;;;;;;;;;;5036292;28;20021;-68
2021/06/09 08:18:56;;;;;;;0.00;0.00;;;;;;;;;;5036333;28;20038;-68
2021/06/09 08:21:24;;;;;;;0.00;0.00;;;;;;;;;;5041257;28;20024;-66
2021/06/09 08:23:50;;;;;;;0.00;0.00;;;;;;;;;;5002264;28;20276;-67
2021/06/09 08:26:15;;;;;;;0.00;0.00;;;;;;;;;;5023746;28;20025;-67
2021/06/09 08:28:43;;;;;;;0.00;0.00;;;;;;;;;;5036126;28;20508;-68
2021/06/09 08:31:08;;;;;;;0.00;0.00;;;;;;;;;;5037366;28;20026;-67
2021/06/09 08:33:35;;;;;;;0.00;0.00;;;;;;;;;;5041445;28;20029;-67
2021/06/09 08:36:00;;;;;;;0.00;0.00;;;;;;;;;;5024474;28;20045;-67
2021/06/09 08:38:25;;;;;;;0.00;0.00;;;;;;;;;;5020445;28;20017;-66
2021/06/09 08:40:50;;;;;;;0.00;0.00;;;;;;;;;;5020939;28;20037;-65
2021/06/09 08:43:17;;;;;;;0.00;0.00;;;;;;;;;;5025260;28;20763;-65
2021/06/09 08:45:42;;;;;;;0.00;0.00;;;;;;;;;;5026994;28;20056;-66
2021/06/09 08:48:07;;;;;;;0.00;0.00;;;;;;;;;;5034566;28;20026;-64
2021/06/09 08:50:33;;;;;;;0.10;0.00;;;;;;;;;;5038318;28;21075;-66
2021/06/09 08:52:59;;;;;;;0.00;0.00;;;;;;;;;;5007306;28;20026;-65
2021/06/09 08:55:24;;;;;;;0.00;0.00;;;;;;;;;;5025455;28;20917;-66
2021/06/09 08:57:49;;;;;;;0.00;0.00;;;;;;;;;;5026730;28;20025;-71
2021/06/09 09:00:16;;;;;;;0.00;0.00;;;;;;;;;;5021711;28;20060;-71
2021/06/09 09:02:41;;;;;;;0.00;0.00;;;;;;;;;;5005697;28;20413;-71
2021/06/09 09:05:10;;;;;;;0.00;0.00;;;;;;;;;;5022156;28;20096;-70
2021/06/09 09:07:35;;;;;;;0.00;0.00;;;;;;;;;;5023564;28;20029;-72
2021/06/09 09:10:01;;;;;;;0.00;0.00;;;;;;;;;;5022933;28;20028;-72
2021/06/09 09:12:26;;;;;;;0.00;0.00;;;;;;;;;;5026092;28;20041;-73
2021/06/09 09:14:51;;;;;;;0.00;0.00;;;;;;;;;;5021351;28;20065;-73
2021/06/09 09:17:16;;;;;;;0.00;0.00;;;;;;;;;;5005463;28;20029;-74
2021/06/09 09:19:42;;;;;;;0.00;0.00;;;;;;;;;;5006280;28;20041;-73
2021/06/09 09:22:08;;;;;;;0.00;0.00;;;;;;;;;;5023027;28;20377;-73
2021/06/09 09:24:36;;;;;;;0.00;0.00;;;;;;;;;;5026724;28;20036;-74
2021/06/09 09:27:02;;;;;;;0.00;0.00;;;;;;;;;;5024698;28;20563;-74
2021/06/09 09:29:27;;;;;;;0.00;0.00;;;;;;;;;;5004935;28;20021;-74
2021/06/09 09:31:52;;;;;;;0.00;0.00;;;;;;;;;;5008185;28;20022;-74
2021/06/09 09:34:27;;;;;;;0.00;0.00;;;;;;;;;;5024921;28;20072;-74
2021/06/09 09:37:02;;;;;;;0.00;0.00;;;;;;;;;;5022682;28;20091;-75
2021/06/09 09:39:27;;;;;;;0.00;0.00;;;;;;;;;;5022754;28;20029;-74
2021/06/09 09:41:52;;;;;;;0.00;0.00;;;;;;;;;;5003546;28;20042;-74
2021/06/09 09:44:19;;;;;;;0.00;0.00;;;;;;;;;;5021106;28;20049;-74
2021/06/09 09:46:51;;;;;;;0.00;0.00;;;;;;;;;;5019970;28;20083;-74
2021/06/09 09:49:19;;;;;;;0.00;0.00;;;;;;;;;;5024017;28;20037;-73
2021/06/09 09:51:45;;;;;;;0.00;0.00;;;;;;;;;;5038023;28;20466;-73
2021/06/09 09:54:10;;;;;;;0.00;0.00;;;;;;;;;;5022792;28;20032;-73
2021/06/09 09:56:36;;;;;;;0.00;0.00;;;;;;;;;;5035166;28;20470;-73
2021/06/09 09:59:06;;;;;;;0.00;0.00;;;;;;;;;;5037407;28;20036;-73
2021/06/09 10:01:32;;;;;;;0.00;0.00;;;;;;;;;;5021984;28;20025;-73
2021/06/09 10:03:58;;;;;;;0.00;0.00;;;;;;;;;;5026259;28;20554;-73
2021/06/09 10:06:27;;;;;;;0.00;0.00;;;;;;;;;;5020724;28;20097;-73
2021/06/09 10:08:53;;;;;;;0.00;0.00;;;;;;;;;;5020133;28;20133;-73
2021/06/09 10:11:18;;;;;;;0.00;0.00;;;;;;;;;;5020114;28;20101;-73
2021/06/09 10:13:44;;;;;;;0.00;0.00;;;;;;;;;;5021634;28;20105;-73
2021/06/09 10:16:24;;;;;;;0.00;0.00;;;;;;;;;;5021936;28;20029;-73
2021/06/09 10:18:59;;;;;;;0.00;0.00;;;;;;;;;;5021370;28;20485;-73
2021/06/09 10:21:25;;;;;;;0.00;0.00;;;;;;;;;;5022896;28;20029;-73
2021/06/09 10:23:50;;;;;;;0.00;0.00;;;;;;;;;;5037824;28;20030;-73
2021/06/09 10:26:16;;;;;;;0.00;0.00;;;;;;;;;;5024117;28;20022;-72
2021/06/09 10:28:57;;;;;;;0.00;0.00;;;;;;;;;;5021523;28;20048;-72
2021/06/09 10:31:22;;;;;;;0.00;0.00;;;;;;;;;;5021003;28;20017;-73
2021/06/09 10:33:48;;;;;;;0.00;0.00;;;;;;;;;;5037953;28;20020;-72
2021/06/09 10:36:13;;;;;;;0.00;0.00;;;;;;;;;;5038611;28;20026;-72
2021/06/09 10:38:39;;;;;;;0.00;0.00;;;;;;;;;;5037211;28;20779;-72
2021/06/09 10:41:04;;;;;;;0.00;0.00;;;;;;;;;;5019642;28;20354;-72
2021/06/09 10:43:29;;;;;;;0.00;0.00;;;;;;;;;;5022934;28;20691;-72
2021/06/09 10:45:54;;;;;;;0.00;0.00;;;;;;;;;;5020998;28;20029;-73
2021/06/09 10:48:19;;;;;;;0.00;0.00;;;;;;;;;;5019398;28;20165;-72
2021/06/09 10:50:44;;;;;;;0.00;0.00;;;;;;;;;;5015708;28;20281;-72
2021/06/09 10:53:10;;;;;;;0.00;0.00;;;;;;;;;;5037262;28;20017;-72
2021/06/09 10:55:36;;;;;;;0.00;0.00;;;;;;;;;;5022076;28;20276;-72
2021/06/09 10:58:01;;;;;;;0.00;0.00;;;;;;;;;;5021652;28;20481;-72
2021/06/09 11:00:27;;;;;;;0.00;0.00;;;;;;;;;;5040482;28;20022;-71
2021/06/09 11:02:54;;;;;;;0.00;0.00;;;;;;;;;;5035495;28;20029;-71
2021/06/09 11:05:19;;;;;;;0.00;0.00;;;;;;;;;;5022044;28;20951;-72
2021/06/09 11:07:45;;;;;;;0.00;0.00;;;;;;;;;;5016153;28;20021;-72
2021/06/09 11:10:11;;;;;;;0.00;0.00;;;;;;;;;;5018131;28;20026;-72
2021/06/09 11:12:39;;;;;;;0.00;0.00;;;;;;;;;;5025435;28;20100;-69
2021/06/09 11:15:10;;;;;;;0.00;0.00;;;;;;;;;;5017215;28;20351;-73
2021/06/09 11:17:39;;;;;;;0.00;0.00;;;;;;;;;;5019375;28;20092;-72
2021/06/09 11:20:10;;;;;;;0.00;0.00;;;;;;;;;;5020298;28;20083;-72
2021/06/09 11:22:39;;;;;;;0.00;0.00;;;;;;;;;;5019441;28;20463;-71
2021/06/09 11:25:12;;;;;;;0.00;0.00;;;;;;;;;;5035793;28;20049;-71
2021/06/09 11:27:37;;;;;;;0.00;0.00;;;;;;;;;;5034670;28;20386;-73
2021/06/09 11:30:38;;;;;;;0.00;0.00;;;;;;;;;;5035928;28;20025;-73
2021/06/09 11:33:04;;;;;;;0.00;0.00;;;;;;;;;;5016142;28;20045;-74
2021/06/09 11:35:42;;;;;;;0.00;0.00;;;;;;;;;;5019611;28;20046;-74
2021/06/09 11:38:14;;;;;;;0.00;0.00;;;;;;;;;;5018173;28;20078;-73
2021/06/09 11:40:51;;;;;;;0.00;0.00;;;;;;;;;;5020693;28;20029;-73
2021/06/09 11:43:26;;;;;;;0.00;0.00;;;;;;;;;;5018746;28;20025;-74
2021/06/09 11:46:01;;;;;;;0.00;0.00;;;;;;;;;;5022475;28;20042;-74
2021/06/09 11:48:27;;;;;;;0.00;0.00;;;;;;;;;;5005720;28;20378;-73
2021/06/09 11:51:16;;;;;;;0.00;0.00;;;;;;;;;;5015016;28;20030;-73
2021/06/09 11:53:43;;;;;;;0.00;0.00;;;;;;;;;;4999359;28;20040;-73
2021/06/09 11:56:14;;;;;;;0.00;0.00;;;;;;;;;;5020558;28;20373;-74
2021/06/09 11:58:39;;;;;;;0.00;0.00;;;;;;;;;;5014886;28;20029;-73
2021/06/09 12:01:05;;;;;;;0.00;0.00;;;;;;;;;;5017277;28;20030;-73
2021/06/09 12:03:30;;;;;;;0.00;0.00;;;;;;;;;;5019126;28;20470;-73
2021/06/09 12:06:34;;;;;;;0.00;0.00;;;;;;;;;;5014654;28;20089;-73
2021/06/09 12:08:59;;;;;;;0.00;0.00;;;;;;;;;;4968836;28;20823;-73
2021/06/09 12:11:24;;;;;;;0.00;0.00;;;;;;;;;;4953321;28;20027;-73
2021/06/09 12:13:49;;;;;;;0.00;0.00;;;;;;;;;;4980997;28;20061;-73
2021/06/09 12:16:17;;;;;;;0.00;0.00;;;;;;;;;;5003087;28;20530;-73
2021/06/09 12:18:43;;;;;;;0.00;0.00;;;;;;;;;;5013928;28;20025;-73
2021/06/09 12:21:09;;;;;;;0.00;0.00;;;;;;;;;;5021933;28;20090;-74
2021/06/09 12:23:34;;;;;;;0.00;0.00;;;;;;;;;;5016233;28;20022;-73
2021/06/09 12:26:00;;;;;;;0.00;0.00;;;;;;;;;;5020960;28;20062;-74
2021/06/09 12:28:25;;;;;;;0.00;0.00;;;;;;;;;;5023567;28;20284;-74
2021/06/09 12:30:57;;;;;;;0.00;0.00;;;;;;;;;;5018027;28;20048;-74
2021/06/09 12:33:35;;;;;;;0.00;0.00;;;;;;;;;;5024750;28;20274;-74
2021/06/09 12:36:01;;;;;;;0.00;0.00;;;;;;;;;;5018789;28;21588;-74
2021/06/09 12:38:26;;;;;;;0.00;0.00;;;;;;;;;;5000887;28;20030;-74
2021/06/09 12:40:51;;;;;;;0.00;0.00;;;;;;;;;;5019793;28;20285;-74
2021/06/09 12:43:20;;;;;;;0.00;0.00;;;;;;;;;;5020925;28;20054;-73
2021/06/09 12:45:45;;;;;;;0.00;0.00;;;;;;;;;;5022803;28;20183;-73
2021/06/09 12:48:12;;;;;;;0.00;0.00;;;;;;;;;;5021438;28;20117;-73
2021/06/09 12:50:40;;;;;;;0.00;0.00;;;;;;;;;;5021303;28;20048;-73
2021/06/09 12:53:10;;;;;;;0.00;0.00;;;;;;;;;;5019302;28;20014;-73
2021/06/09 12:55:36;;;;;;;0.00;0.00;;;;;;;;;;5032212;28;20386;-73
2021/06/09 12:58:03;;;;;;;0.00;0.00;;;;;;;;;;5020945;28;20025;-73
2021/06/09 13:00:32;;;;;;;0.00;0.00;;;;;;;;;;5042995;28;20052;-73
2021/06/09 13:03:13;;;;;;;0.00;0.00;;;;;;;;;;5019810;28;20124;-72
2021/06/09 13:05:38;;;;;;;0.00;0.00;;;;;;;;;;5012726;28;20079;-73
2021/06/09 13:08:10;;;;;;;0.00;0.00;;;;;;;;;;5036104;28;20025;-71
2021/06/09 13:10:35;;;;;;;0.00;0.00;;;;;;;;;;5018517;28;20029;-71
2021/06/09 13:13:00;;;;;;;0.00;0.00;;;;;;;;;;5035147;28;20017;-71
2021/06/09 13:15:26;;;;;;;0.00;0.00;;;;;;;;;;5038488;28;20351;-71
2021/06/09 13:17:51;;;;;;;0.00;0.00;;;;;;;;;;5027394;28;20025;-72
2021/06/09 13:20:17;;;;;;;0.00;0.00;;;;;;;;;;5039452;28;20018;-72
2021/06/09 13:22:43;;;;;;;0.00;0.00;;;;;;;;;;5035718;28;20021;-72
2021/06/09 13:25:08;;;;;;;0.00;0.00;;;;;;;;;;5044287;28;20049;-73
2021/06/09 13:27:33;;;;;;;0.00;0.00;;;;;;;;;;5029280;28;20025;-73
2021/06/09 13:29:58;;;;;;;0.00;0.00;;;;;;;;;;5039102;28;20029;-73
2021/06/09 13:32:27;;;;;;;0.00;0.00;;;;;;;;;;5028262;28;20029;-72
2021/06/09 13:35:11;;;;;;;0.00;0.00;;;;;;;;;;5024170;28;20363;-72
2021/06/09 13:37:39;;;;;;;0.00;0.00;;;;;;;;;;5019121;28;20461;-72
2021/06/09 13:40:11;;;;;;;0.00;0.00;;;;;;;;;;5005792;28;20021;-71
2021/06/09 13:42:38;;;;;;;0.00;0.00;;;;;;;;;;5025394;28;20024;-71
2021/06/09 13:45:05;;;;;;;0.00;0.00;;;;;;;;;;5023871;28;20085;-72
2021/06/09 13:47:35;;;;;;;0.00;0.00;;;;;;;;;;5023972;28;20017;-71
2021/06/09 13:50:21;;;;;;;0.00;0.00;;;;;;;;;;5024051;28;20014;-72
2021/06/09 13:52:47;;;;;;;0.00;0.00;;;;;;;;;;5020169;28;20026;-72
2021/06/09 13:55:17;;;;;;;0.00;0.00;;;;;;;;;;5022972;28;20033;-72
2021/06/09 13:57:46;;;;;;;0.00;0.00;;;;;;;;;;5020627;28;20037;-72
2021/06/09 14:00:11;;;;;;;0.00;0.00;;;;;;;;;;5023256;28;20021;-72
2021/06/09 14:02:46;;;;;;;0.00;0.00;;;;;;;;;;5021585;28;20022;-73
2021/06/09 14:05:16;;;;;;;0.00;0.00;;;;;;;;;;5019841;28;20370;-72
2021/06/09 14:07:44;;;;;;;0.00;0.00;;;;;;;;;;5020015;28;20479;-73
2021/06/09 14:10:09;;;;;;;0.00;0.00;;;;;;;;;;5008008;28;20472;-73
2021/06/09 14:12:38;;;;;;;0.00;0.00;;;;;;;;;;5021568;28;20014;-73
2021/06/09 14:15:08;;;;;;;0.00;0.00;;;;;;;;;;5009685;28;20367;-72
2021/06/09 14:17:33;;;;;;;0.00;0.00;;;;;;;;;;5018682;28;20018;-72
2021/06/09 14:20:04;;;;;;;0.00;0.00;;;;;;;;;;5023352;28;20022;-72
2021/06/09 14:22:30;;;;;;;0.00;0.00;;;;;;;;;;5019930;28;20115;-73
2021/06/09 14:24:55;;;;;;;0.00;0.00;;;;;;;;;;5024511;28;20018;-72
2021/06/09 14:27:21;;;;;;;0.00;0.00;;;;;;;;;;5025790;28;20014;-72
2021/06/09 14:30:02;;;;;;;0.00;0.00;;;;;;;;;;5022267;28;20022;-72
2021/06/09 14:32:27;;;;;;;0.00;0.00;;;;;;;;;;5016274;28;20022;-71
2021/06/09 14:34:53;;;;;;;0.00;0.00;;;;;;;;;;4997775;28;20033;-71
2021/06/09 14:37:31;;;;;;;0.00;0.00;;;;;;;;;;5025626;28;20495;-71
2021/06/09 14:40:09;;;;;;;0.00;0.00;;;;;;;;;;5020409;28;20387;-70
2021/06/09 14:42:34;;;;;;;0.00;0.00;;;;;;;;;;5022470;28;20611;-71